createdAt,value
2023-02-11T00:00:27.722Z,11.83
2023-02-11T00:05:31.054Z,10.90
2023-02-11T00:10:34.610Z,9.43
2023-02-11T00:15:39.261Z,12.30
2023-02-11T00:20:42.979Z,13.47
2023-02-11T00:25:46.929Z,12.40
2023-02-11T00:30:57.112Z,12.30
2023-02-11T00:36:04.488Z,10.63
2023-02-11T00:41:07.792Z,11.67
2023-02-11T00:46:12.617Z,10.93
2023-02-11T00:51:16.278Z,10.00
2023-02-11T00:56:19.531Z,9.87
2023-02-11T01:01:24.424Z,11.63
2023-02-11T01:06:27.800Z,12.50
2023-02-11T01:11:31.086Z,12.87
2023-02-11T01:16:35.827Z,12.17
2023-02-11T01:21:39.169Z,10.13
2023-02-11T01:26:42.459Z,9.83
2023-02-11T01:31:47.255Z,10.37
2023-02-11T01:36:50.511Z,7.00
2023-02-11T01:41:53.932Z,9.43
2023-02-11T01:46:58.730Z,11.27
2023-02-11T01:52:04.724Z,11.83
2023-02-11T01:57:25.134Z,10.47
2023-02-11T02:02:35.606Z,12.07
2023-02-11T02:07:46.250Z,8.57
2023-02-11T02:12:49.765Z,10.67
2023-02-11T02:18:01.976Z,11.13
2023-02-11T02:23:36.818Z,10.00
2023-02-11T02:29:07.997Z,12.87
2023-02-11T02:34:20.874Z,11.37
2023-02-11T02:39:27.506Z,13.03
2023-02-11T02:44:32.084Z,13.20
2023-02-11T02:49:36.705Z,10.73
2023-02-11T02:55:06.998Z,10.03
2023-02-11T03:00:19.190Z,11.47
2023-02-11T03:05:32.005Z,11.60
2023-02-11T03:10:39.722Z,10.80
2023-02-11T03:15:45.363Z,11.50
2023-02-11T03:20:54.429Z,11.10
2023-02-11T03:26:00.696Z,13.43
2023-02-11T03:31:12.095Z,10.17
2023-02-11T03:36:24.097Z,11.67
2023-02-11T03:41:27.728Z,13.73
2023-02-11T03:46:34.683Z,12.90
2023-02-11T03:51:40.477Z,11.90
2023-02-11T03:56:52.010Z,13.10
2023-02-11T04:01:55.880Z,16.53
2023-02-11T04:07:00.508Z,14.27
2023-02-11T04:12:03.840Z,16.07
2023-02-11T04:17:07.409Z,12.43
2023-02-11T04:22:12.130Z,11.87
2023-02-11T04:27:15.557Z,13.40
2023-02-11T04:32:19.090Z,13.50
2023-02-11T04:37:23.915Z,14.90
2023-02-11T04:42:27.360Z,16.00
2023-02-11T04:47:30.811Z,12.33
2023-02-11T04:52:35.609Z,14.20
2023-02-11T04:57:39.034Z,12.57
2023-02-11T05:02:42.433Z,14.57
2023-02-11T05:07:48.494Z,13.17
2023-02-11T05:12:53.521Z,13.87
2023-02-11T05:17:58.794Z,14.87
2023-02-11T05:23:03.631Z,14.50
2023-02-11T05:28:07.859Z,16.20
2023-02-11T05:33:11.254Z,19.63
2023-02-11T05:38:15.952Z,18.60
2023-02-11T05:43:19.245Z,12.33
2023-02-11T05:48:22.498Z,9.47
2023-02-11T05:53:27.266Z,15.07
2023-02-11T05:58:30.667Z,8.30
2023-02-11T06:03:33.994Z,15.00
2023-02-11T06:08:39.360Z,16.50
2023-02-11T06:13:42.871Z,15.70
2023-02-11T06:18:46.111Z,13.50
2023-02-11T06:23:50.803Z,14.70
2023-02-11T06:28:54.173Z,16.37
2023-02-11T06:33:58.537Z,15.30
2023-02-11T06:39:03.292Z,18.47
2023-02-11T06:44:06.872Z,18.47
2023-02-11T06:49:10.159Z,16.67
2023-02-11T06:54:14.896Z,16.37
2023-02-11T06:59:19.124Z,16.57
2023-02-11T07:04:22.803Z,15.93
2023-02-11T07:09:27.493Z,18.60
2023-02-11T07:14:30.748Z,16.30
2023-02-11T07:19:34.204Z,12.53
2023-02-11T07:24:38.852Z,17.17
2023-02-11T07:29:45.844Z,17.70
2023-02-11T07:34:49.697Z,18.20
2023-02-11T07:39:54.486Z,18.30
2023-02-11T07:44:57.846Z,19.47
2023-02-11T07:50:01.071Z,20.53
2023-02-11T07:55:06.136Z,20.60
2023-02-11T08:00:10.395Z,21.93
2023-02-11T08:05:16.714Z,24.43
2023-02-11T08:10:22.122Z,24.50
2023-02-11T08:15:25.361Z,24.00
2023-02-11T08:20:28.742Z,25.40
2023-02-11T08:25:34.245Z,22.00
2023-02-11T08:30:37.679Z,23.70
2023-02-11T08:35:41.491Z,21.77
2023-02-11T08:40:46.270Z,20.30
2023-02-11T08:45:49.887Z,25.30
2023-02-11T08:50:53.411Z,20.63
2023-02-11T08:55:58.247Z,20.30
2023-02-11T09:01:01.608Z,20.47
2023-02-11T09:06:07.007Z,24.80
2023-02-11T09:11:12.460Z,20.60
2023-02-11T09:16:20.193Z,17.33
2023-02-11T09:21:23.543Z,21.45
2023-02-11T09:26:30.094Z,19.67
2023-02-11T09:31:35.019Z,30.55
2023-02-11T09:36:40.846Z,30.43
2023-02-11T09:42:08.834Z,21.75
2023-02-11T09:47:24.637Z,21.23
2023-02-11T09:52:36.976Z,19.15
2023-02-11T09:57:41.774Z,18.97
2023-02-11T10:03:00.336Z,17.00
2023-02-11T10:08:13.651Z,19.67
2023-02-11T10:13:37.075Z,20.50
2023-02-11T10:18:54.678Z,20.00
2023-02-11T10:24:04.479Z,17.87
2023-02-11T10:29:21.937Z,19.70
2023-02-11T10:34:25.258Z,18.25
2023-02-11T10:39:29.522Z,18.33
2023-02-11T10:44:37.542Z,19.00
2023-02-11T10:49:43.465Z,18.80
2023-02-11T10:55:01.485Z,16.30
2023-02-11T11:00:24.186Z,14.57
2023-02-11T11:05:32.713Z,10.75
2023-02-11T11:10:44.022Z,10.43
2023-02-11T11:16:07.458Z,12.05
2023-02-11T11:21:16.720Z,2.05
2023-02-11T11:26:20.512Z,3.65
2023-02-11T11:31:29.411Z,12.83
2023-02-11T11:36:37.163Z,10.93
2023-02-11T11:41:51.586Z,3.07
2023-02-11T11:47:21.719Z,11.43
2023-02-11T11:52:38.851Z,19.52
2023-02-11T11:57:43.351Z,18.35
2023-02-11T12:03:12.455Z,20.25
2023-02-11T12:08:23.328Z,14.15
2023-02-11T12:13:44.178Z,12.57
2023-02-11T12:19:25.566Z,13.07
2023-02-11T12:24:42.832Z,12.48
2023-02-11T12:30:01.776Z,12.45
2023-02-11T12:35:32.102Z,11.80
2023-02-11T12:40:43.709Z,12.57
2023-02-11T12:46:03.816Z,12.80
2023-02-11T12:51:20.093Z,11.32
2023-02-11T12:56:31.356Z,12.55
2023-02-11T13:01:40.068Z,17.38
2023-02-11T13:06:48.567Z,20.40
2023-02-11T13:11:56.193Z,18.95
2023-02-11T13:17:00.610Z,19.77
2023-02-11T13:22:10.896Z,18.70
2023-02-11T13:27:38.338Z,16.80
2023-02-11T13:33:04.248Z,18.38
2023-02-11T13:38:21.540Z,18.50
2023-02-11T13:43:28.601Z,19.17
2023-02-11T13:48:34.648Z,18.85
2023-02-11T13:53:51.034Z,21.37
2023-02-11T13:58:54.344Z,19.38
2023-02-11T14:04:40.138Z,19.60
2023-02-11T14:09:44.878Z,20.27
2023-02-11T14:15:05.391Z,21.30
2023-02-11T14:20:36.590Z,20.03
2023-02-11T14:25:44.664Z,18.92
2023-02-11T14:30:59.279Z,20.98
2023-02-11T14:36:12.356Z,16.48
2023-02-11T14:41:22.129Z,19.33
2023-02-11T14:46:27.789Z,21.17
2023-02-11T14:51:36.244Z,19.75
2023-02-11T14:56:41.812Z,21.88
2023-02-11T15:01:47.961Z,19.08
2023-02-11T15:06:51.845Z,18.60
2023-02-11T15:11:59.058Z,20.15
2023-02-11T15:17:04.628Z,20.30
2023-02-11T15:22:18.310Z,19.80
2023-02-11T15:27:25.817Z,23.90
2023-02-11T15:32:29.853Z,23.55
2023-02-11T15:37:34.196Z,19.30
2023-02-11T15:42:52.204Z,20.75
2023-02-11T15:48:00.311Z,24.33
2023-02-11T15:53:18.340Z,20.70
2023-02-11T15:58:23.934Z,20.83
2023-02-11T16:03:32.765Z,20.50
2023-02-11T16:08:37.683Z,21.98
2023-02-11T16:13:48.308Z,22.17
2023-02-11T16:19:04.310Z,23.67
2023-02-11T16:24:09.389Z,23.77
2023-02-11T16:29:17.319Z,23.90
2023-02-11T16:34:22.380Z,23.97
2023-02-11T16:39:25.828Z,24.00
2023-02-11T16:44:30.837Z,22.23
2023-02-11T16:49:36.987Z,22.07
2023-02-11T16:54:40.414Z,22.13
2023-02-11T16:59:45.625Z,20.87
2023-02-11T17:04:49.413Z,23.67
2023-02-11T17:09:53.091Z,22.30
2023-02-11T17:14:57.774Z,21.53
2023-02-11T17:20:01.159Z,24.33
2023-02-11T17:25:04.583Z,22.53
2023-02-11T17:30:11.180Z,24.93
2023-02-11T17:35:14.455Z,21.40
2023-02-11T17:40:18.000Z,22.53
2023-02-11T17:45:22.690Z,23.97
2023-02-11T17:50:28.874Z,25.77
2023-02-11T17:55:34.571Z,27.33
2023-02-11T18:00:39.414Z,24.83
2023-02-11T18:05:42.938Z,24.52
2023-02-11T18:10:47.075Z,23.35
2023-02-11T18:15:53.302Z,23.97
2023-02-11T18:21:00.040Z,25.83
2023-02-11T18:26:03.949Z,28.80
2023-02-11T18:31:10.649Z,30.92
2023-02-11T18:36:17.561Z,25.13
2023-02-11T18:41:22.021Z,23.67
2023-02-11T18:46:26.730Z,25.73
2023-02-11T18:51:32.478Z,24.90
2023-02-11T18:56:35.783Z,25.17
2023-02-11T19:01:43.379Z,23.60
2023-02-11T19:06:49.517Z,21.87
2023-02-11T19:11:54.313Z,22.40
2023-02-11T19:17:01.899Z,23.87
2023-02-11T19:22:09.963Z,21.57
2023-02-11T19:27:13.757Z,22.63
2023-02-11T19:32:18.422Z,21.58
2023-02-11T19:37:21.767Z,21.67
2023-02-11T19:42:27.586Z,24.20
2023-02-11T19:47:32.398Z,25.33
2023-02-11T19:52:38.250Z,25.20
2023-02-11T19:57:41.497Z,27.83
2023-02-11T20:02:47.211Z,29.90
2023-02-11T20:07:50.590Z,21.93
2023-02-11T20:12:54.255Z,21.57
2023-02-11T20:17:58.946Z,20.83
2023-02-11T20:23:02.199Z,21.47
2023-02-11T20:28:05.820Z,21.17
2023-02-11T20:33:10.779Z,20.50
2023-02-11T20:38:14.084Z,17.33
2023-02-11T20:43:17.794Z,16.23
2023-02-11T20:48:22.441Z,13.73
2023-02-11T20:53:25.677Z,13.60
2023-02-11T20:58:29.073Z,11.63
2023-02-11T21:03:33.821Z,11.30
2023-02-11T21:08:37.140Z,12.98
2023-02-11T21:13:41.669Z,13.20
2023-02-11T21:18:46.415Z,12.02
2023-02-11T21:23:49.681Z,10.82
2023-02-11T21:28:53.260Z,11.57
2023-02-11T21:33:59.618Z,10.68
2023-02-11T21:39:04.058Z,12.05
2023-02-11T21:44:07.543Z,17.13
2023-02-11T21:49:12.221Z,20.33
2023-02-11T21:54:15.637Z,24.67
2023-02-11T21:59:19.422Z,26.50
2023-02-11T22:04:24.291Z,26.02
2023-02-11T22:09:27.753Z,25.90
2023-02-11T22:14:32.412Z,26.00
2023-02-11T22:19:37.936Z,24.63
2023-02-11T22:24:41.946Z,21.70
2023-02-11T22:29:45.682Z,22.87
2023-02-11T22:34:53.108Z,19.98
2023-02-11T22:40:00.228Z,18.23
2023-02-11T22:45:03.650Z,17.37
2023-02-11T22:50:09.469Z,17.70
2023-02-11T22:55:13.135Z,13.97
2023-02-11T23:00:20.892Z,14.38
2023-02-11T23:05:25.553Z,11.57
2023-02-11T23:10:28.918Z,11.82
2023-02-11T23:15:32.531Z,11.43
2023-02-11T23:20:38.428Z,11.07
2023-02-11T23:25:45.231Z,10.68
2023-02-11T23:30:48.536Z,10.90
2023-02-11T23:35:53.796Z,10.52
2023-02-11T23:40:57.309Z,18.23
2023-02-11T23:46:00.742Z,12.38
2023-02-11T23:51:06.473Z,19.43
2023-02-11T23:56:11.474Z,20.65
